Terminal Aerodrome Forecast
Issued by NWS Austin/San Antonio, TX

Home | Current Version | Previous Version | Text Only | Print | Product List | Glossary On
Versions: 1 2 3 4 5 6 7 8 9 10 11 12 13 14 15 16 17 18 19 20 21 22
000
FTUS44 KEWX 191700
TAFAUS
TAF
KAUS 191739Z 1918/2024 02012KT P6SM BKN015 OVC050
     FM200400 01007KT 6SM BR OVC012
     FM200800 01005KT 2SM BR OVC007
     FM201100 36005KT 1SM BR OVC005
     FM201600 02005KT 5SM BR OVC012
     FM201800 03007KT P6SM OVC015=

USA.gov is the U.S. government's official web portal to all federal, state and local government web resources and services.